sensor_id;sensor_type;location;lat;lon;timestamp;temperature;humidity
39899;DHT22;25571;47.876;10.642;2022-09-01T04:24:01;16.00;99.90
39899;DHT22;25571;47.876;10.642;2022-09-01T04:26:29;14.30;99.90
39899;DHT22;25571;47.876;10.642;2022-09-01T04:28:55;14.30;99.90
39899;DHT22;25571;47.876;10.642;2022-09-01T04:31:21;14.30;99.90
39899;DHT22;25571;47.876;10.642;2022-09-01T04:33:49;14.40;99.90
39899;DHT22;25571;47.876;10.642;2022-09-01T04:36:27;14.40;99.90
39899;DHT22;25571;47.876;10.642;2022-09-01T04:38:58;14.30;99.90
39899;DHT22;25571;47.876;10.642;2022-09-01T04:41:30;14.40;99.90
39899;DHT22;25571;47.876;10.642;2022-09-01T04:43:58;14.40;99.90
39899;DHT22;25571;47.876;10.642;2022-09-01T04:46:26;14.30;99.90
39899;DHT22;25571;47.876;10.642;2022-09-01T04:48:54;14.30;99.90
39899;DHT22;25571;47.876;10.642;2022-09-01T04:51:21;14.30;99.90
39899;DHT22;25571;47.876;10.642;2022-09-01T04:53:46;14.50;99.90
39899;DHT22;25571;47.876;10.642;2022-09-01T04:56:18;14.30;99.90
39899;DHT22;25571;47.876;10.642;2022-09-01T04:58:46;14.20;99.90
39899;DHT22;25571;47.876;10.642;2022-09-01T05:01:17;14.40;99.90
39899;DHT22;25571;47.876;10.642;2022-09-01T05:03:44;14.40;99.90
39899;DHT22;25571;47.876;10.642;2022-09-01T05:06:18;14.50;99.90
39899;DHT22;25571;47.876;10.642;2022-09-01T05:08:44;14.50;99.90
39899;DHT22;25571;47.876;10.642;2022-09-01T05:11:11;14.50;99.90
39899;DHT22;25571;47.876;10.642;2022-09-01T05:13:42;14.50;99.90
39899;DHT22;25571;47.876;10.642;2022-09-01T05:16:10;14.50;99.90
39899;DHT22;25571;47.876;10.642;2022-09-01T05:18:39;14.40;99.90
39899;DHT22;25571;47.876;10.642;2022-09-01T05:21:08;14.40;99.90
39899;DHT22;25571;47.876;10.642;2022-09-01T05:23:36;14.40;99.90
39899;DHT22;25571;47.876;10.642;2022-09-01T05:26:03;14.40;99.90
39899;DHT22;25571;47.876;10.642;2022-09-01T05:28:39;14.40;99.90
39899;DHT22;25571;47.876;10.642;2022-09-01T05:31:06;14.50;99.90
39899;DHT22;25571;47.876;10.642;2022-09-01T05:33:31;14.40;99.90
39899;DHT22;25571;47.876;10.642;2022-09-01T05:35:59;14.40;99.90
39899;DHT22;25571;47.876;10.642;2022-09-01T05:38:25;14.30;99.90
39899;DHT22;25571;47.876;10.642;2022-09-01T05:40:59;14.50;99.90
39899;DHT22;25571;47.876;10.642;2022-09-01T05:43:30;14.40;99.90
39899;DHT22;25571;47.876;10.642;2022-09-01T05:45:59;14.50;99.90
39899;DHT22;25571;47.876;10.642;2022-09-01T05:48:26;14.60;99.90
39899;DHT22;25571;47.876;10.642;2022-09-01T05:50:55;14.70;99.90
39899;DHT22;25571;47.876;10.642;2022-09-01T05:53:23;14.60;99.90
39899;DHT22;25571;47.876;10.642;2022-09-01T05:55:51;14.70;99.90
39899;DHT22;25571;47.876;10.642;2022-09-01T05:58:22;14.60;99.90
39899;DHT22;25571;47.876;10.642;2022-09-01T06:00:51;14.70;99.90
39899;DHT22;25571;47.876;10.642;2022-09-01T06:03:19;14.90;99.90
39899;DHT22;25571;47.876;10.642;2022-09-01T06:05:47;15.10;99.90
39899;DHT22;25571;47.876;10.642;2022-09-01T06:08:18;15.20;99.90
39899;DHT22;25571;47.876;10.642;2022-09-01T06:10:44;15.30;99.90
39899;DHT22;25571;47.876;10.642;2022-09-01T06:13:11;15.30;99.90
39899;DHT22;25571;47.876;10.642;2022-09-01T06:15:41;15.40;99.90
39899;DHT22;25571;47.876;10.642;2022-09-01T06:18:10;15.50;99.90
39899;DHT22;25571;47.876;10.642;2022-09-01T06:20:44;15.50;99.90
39899;DHT22;25571;47.876;10.642;2022-09-01T06:23:10;15.60;99.90
39899;DHT22;25571;47.876;10.642;2022-09-01T06:25:40;15.50;99.90
39899;DHT22;25571;47.876;10.642;2022-09-01T06:28:07;15.40;99.90
39899;DHT22;25571;47.876;10.642;2022-09-01T06:30:36;15.20;99.90
39899;DHT22;25571;47.876;10.642;2022-09-01T06:33:03;15.40;99.90
39899;DHT22;25571;47.876;10.642;2022-09-01T06:35:34;15.50;99.90
39899;DHT22;25571;47.876;10.642;2022-09-01T06:38:00;15.50;99.90
39899;DHT22;25571;47.876;10.642;2022-09-01T06:40:27;15.40;99.90
39899;DHT22;25571;47.876;10.642;2022-09-01T06:42:53;15.40;99.90
39899;DHT22;25571;47.876;10.642;2022-09-01T06:45:21;15.50;99.90
39899;DHT22;25571;47.876;10.642;2022-09-01T06:47:48;15.40;99.90
39899;DHT22;25571;47.876;10.642;2022-09-01T06:50:18;15.10;99.90
39899;DHT22;25571;47.876;10.642;2022-09-01T06:52:47;15.10;99.90
39899;DHT22;25571;47.876;10.642;2022-09-01T06:55:15;15.20;99.90
39899;DHT22;25571;47.876;10.642;2022-09-01T06:57:42;15.20;99.90
39899;DHT22;25571;47.876;10.642;2022-09-01T07:00:13;15.40;99.90
39899;DHT22;25571;47.876;10.642;2022-09-01T07:02:45;15.20;99.90
39899;DHT22;25571;47.876;10.642;2022-09-01T07:05:13;15.30;99.90
39899;DHT22;25571;47.876;10.642;2022-09-01T07:07:41;15.40;99.90
39899;DHT22;25571;47.876;10.642;2022-09-01T07:10:11;15.40;99.90
39899;DHT22;25571;47.876;10.642;2022-09-01T07:12:39;15.30;99.90
39899;DHT22;25571;47.876;10.642;2022-09-01T07:15:11;15.30;99.90
39899;DHT22;25571;47.876;10.642;2022-09-01T07:17:44;15.30;99.90
39899;DHT22;25571;47.876;10.642;2022-09-01T07:20:13;15.40;99.90
39899;DHT22;25571;47.876;10.642;2022-09-01T07:22:40;15.40;99.90
39899;DHT22;25571;47.876;10.642;2022-09-01T07:25:06;15.60;99.90
39899;DHT22;25571;47.876;10.642;2022-09-01T07:27:35;15.50;99.90
39899;DHT22;25571;47.876;10.642;2022-09-01T07:30:01;15.40;99.90
39899;DHT22;25571;47.876;10.642;2022-09-01T07:32:27;15.60;99.90
39899;DHT22;25571;47.876;10.642;2022-09-01T07:34:55;15.60;99.90
39899;DHT22;25571;47.876;10.642;2022-09-01T07:37:21;15.80;99.90
39899;DHT22;25571;47.876;10.642;2022-09-01T07:39:47;15.90;99.90
39899;DHT22;25571;47.876;10.642;2022-09-01T07:42:12;15.70;99.90
39899;DHT22;25571;47.876;10.642;2022-09-01T07:44:41;15.90;99.90
39899;DHT22;25571;47.876;10.642;2022-09-01T07:47:07;16.10;99.90
39899;DHT22;25571;47.876;10.642;2022-09-01T07:49:34;16.00;99.90
39899;DHT22;25571;47.876;10.642;2022-09-01T07:52:03;16.20;99.90
39899;DHT22;25571;47.876;10.642;2022-09-01T07:54:30;16.20;99.90
39899;DHT22;25571;47.876;10.642;2022-09-01T07:56:55;16.40;99.90
39899;DHT22;25571;47.876;10.642;2022-09-01T07:59:21;16.70;99.90
39899;DHT22;25571;47.876;10.642;2022-09-01T08:01:47;16.80;99.90
39899;DHT22;25571;47.876;10.642;2022-09-01T08:04:14;17.00;99.90
39899;DHT22;25571;47.876;10.642;2022-09-01T08:06:39;17.10;99.90
39899;DHT22;25571;47.876;10.642;2022-09-01T08:09:05;17.20;99.90
39899;DHT22;25571;47.876;10.642;2022-09-01T08:11:35;17.20;99.90
39899;DHT22;25571;47.876;10.642;2022-09-01T08:14:00;17.10;99.90
39899;DHT22;25571;47.876;10.642;2022-09-01T08:16:28;16.90;99.90
39899;DHT22;25571;47.876;10.642;2022-09-01T08:18:54;16.90;99.90
39899;DHT22;25571;47.876;10.642;2022-09-01T08:21:21;17.10;99.90
39899;DHT22;25571;47.876;10.642;2022-09-01T08:23:49;16.80;99.90
39899;DHT22;25571;47.876;10.642;2022-09-01T08:26:16;17.00;99.90
39899;DHT22;25571;47.876;10.642;2022-09-01T08:28:43;16.80;99.90
39899;DHT22;25571;47.876;10.642;2022-09-01T08:31:11;16.60;99.90
39899;DHT22;25571;47.876;10.642;2022-09-01T08:33:40;16.50;99.90
39899;DHT22;25571;47.876;10.642;2022-09-01T08:36:08;16.80;99.90
39899;DHT22;25571;47.876;10.642;2022-09-01T08:38:34;17.10;99.90
39899;DHT22;25571;47.876;10.642;2022-09-01T08:41:01;17.40;99.90
39899;DHT22;25571;47.876;10.642;2022-09-01T08:43:44;17.70;99.90
39899;DHT22;25571;47.876;10.642;2022-09-01T08:46:23;17.80;99.90
39899;DHT22;25571;47.876;10.642;2022-09-01T08:48:52;17.70;99.90
39899;DHT22;25571;47.876;10.642;2022-09-01T08:51:26;17.90;99.90
39899;DHT22;25571;47.876;10.642;2022-09-01T08:54:18;18.00;99.90
39899;DHT22;25571;47.876;10.642;2022-09-01T08:56:50;18.20;99.90
39899;DHT22;25571;47.876;10.642;2022-09-01T08:59:18;18.10;99.90
39899;DHT22;25571;47.876;10.642;2022-09-01T09:10:20;18.70;99.90
39899;DHT22;25571;47.876;10.642;2022-09-01T09:13:01;18.80;99.80
39899;DHT22;25571;47.876;10.642;2022-09-01T09:15:52;19.60;97.50
39899;DHT22;25571;47.876;10.642;2022-09-01T09:23:45;19.30;96.10
39899;DHT22;25571;47.876;10.642;2022-09-01T09:26:11;19.20;97.00
39899;DHT22;25571;47.876;10.642;2022-09-01T09:28:38;19.30;97.10
39899;DHT22;25571;47.876;10.642;2022-09-01T09:31:44;19.30;95.70
39899;DHT22;25571;47.876;10.642;2022-09-01T09:34:32;19.00;94.90
39899;DHT22;25571;47.876;10.642;2022-09-01T09:37:19;18.90;96.80
39899;DHT22;25571;47.876;10.642;2022-09-01T09:40:04;19.10;96.60
39899;DHT22;25571;47.876;10.642;2022-09-01T09:42:33;19.10;95.60
39899;DHT22;25571;47.876;10.642;2022-09-01T09:44:58;18.80;95.80
39899;DHT22;25571;47.876;10.642;2022-09-01T09:47:42;18.80;97.80
39899;DHT22;25571;47.876;10.642;2022-09-01T09:50:25;19.20;96.40
39899;DHT22;25571;47.876;10.642;2022-09-01T09:52:53;18.90;96.70
39899;DHT22;25571;47.876;10.642;2022-09-01T09:55:34;18.80;98.10
39899;DHT22;25571;47.876;10.642;2022-09-01T09:58:07;19.00;98.00
39899;DHT22;25571;47.876;10.642;2022-09-01T10:00:34;19.10;97.50
39899;DHT22;25571;47.876;10.642;2022-09-01T10:03:03;19.20;97.20
39899;DHT22;25571;47.876;10.642;2022-09-01T10:05:37;19.00;96.30
39899;DHT22;25571;47.876;10.642;2022-09-01T10:08:05;19.20;96.30
39899;DHT22;25571;47.876;10.642;2022-09-01T10:10:41;18.90;95.00
39899;DHT22;25571;47.876;10.642;2022-09-01T10:13:11;18.90;95.90
39899;DHT22;25571;47.876;10.642;2022-09-01T10:15:38;18.70;97.70
39899;DHT22;25571;47.876;10.642;2022-09-01T10:18:12;19.10;97.50
39899;DHT22;25571;47.876;10.642;2022-09-01T10:20:55;19.50;96.40
39899;DHT22;25571;47.876;10.642;2022-09-01T10:23:21;19.10;95.00
39899;DHT22;25571;47.876;10.642;2022-09-01T10:25:50;19.20;97.40
39899;DHT22;25571;47.876;10.642;2022-09-01T10:28:20;19.10;95.30
39899;DHT22;25571;47.876;10.642;2022-09-01T10:30:50;18.80;96.40
39899;DHT22;25571;47.876;10.642;2022-09-01T10:33:18;19.00;96.50
39899;DHT22;25571;47.876;10.642;2022-09-01T10:35:47;19.10;97.30
39899;DHT22;25571;47.876;10.642;2022-09-01T10:38:15;19.00;96.00
39899;DHT22;25571;47.876;10.642;2022-09-01T10:40:49;19.20;96.10
39899;DHT22;25571;47.876;10.642;2022-09-01T10:43:49;19.20;96.90
39899;DHT22;25571;47.876;10.642;2022-09-01T10:48:48;19.50;95.40
39899;DHT22;25571;47.876;10.642;2022-09-01T10:53:47;19.50;95.40
39899;DHT22;25571;47.876;10.642;2022-09-01T10:56:37;19.40;94.50
39899;DHT22;25571;47.876;10.642;2022-09-01T10:59:27;19.10;95.10
39899;DHT22;25571;47.876;10.642;2022-09-01T11:07:00;19.00;93.70
39899;DHT22;25571;47.876;10.642;2022-09-01T11:09:33;19.00;94.40
39899;DHT22;25571;47.876;10.642;2022-09-01T11:14:52;19.10;96.50
39899;DHT22;25571;47.876;10.642;2022-09-01T11:17:33;19.30;95.20
39899;DHT22;25571;47.876;10.642;2022-09-01T11:20:21;19.30;93.90
39899;DHT22;25571;47.876;10.642;2022-09-01T11:25:42;19.00;93.70
39899;DHT22;25571;47.876;10.642;2022-09-01T11:30:55;19.10;92.80
39899;DHT22;25571;47.876;10.642;2022-09-01T11:36:17;19.30;94.40
39899;DHT22;25571;47.876;10.642;2022-09-01T11:38:49;19.40;94.30
39899;DHT22;25571;47.876;10.642;2022-09-01T11:43:59;19.50;92.80
39899;DHT22;25571;47.876;10.642;2022-09-01T11:46:31;19.10;93.90
39899;DHT22;25571;47.876;10.642;2022-09-01T11:48:59;19.30;94.40
39899;DHT22;25571;47.876;10.642;2022-09-01T11:51:26;19.10;93.30
39899;DHT22;25571;47.876;10.642;2022-09-01T11:53:57;19.10;93.20
39899;DHT22;25571;47.876;10.642;2022-09-01T11:56:26;19.30;92.80
39899;DHT22;25571;47.876;10.642;2022-09-01T11:58:52;19.30;93.70
39899;DHT22;25571;47.876;10.642;2022-09-01T12:03:55;19.40;94.50
39899;DHT22;25571;47.876;10.642;2022-09-01T12:06:27;19.30;94.90
39899;DHT22;25571;47.876;10.642;2022-09-01T12:08:59;19.30;94.80
39899;DHT22;25571;47.876;10.642;2022-09-01T12:11:29;19.50;94.80
39899;DHT22;25571;47.876;10.642;2022-09-01T12:14:02;19.60;94.00
39899;DHT22;25571;47.876;10.642;2022-09-01T12:16:29;19.40;93.90
39899;DHT22;25571;47.876;10.642;2022-09-01T12:18:57;19.40;94.60
39899;DHT22;25571;47.876;10.642;2022-09-01T12:23:52;19.00;93.70
39899;DHT22;25571;47.876;10.642;2022-09-01T12:26:28;18.90;95.20
39899;DHT22;25571;47.876;10.642;2022-09-01T12:28:55;19.00;95.60
39899;DHT22;25571;47.876;10.642;2022-09-01T12:31:24;19.10;95.10
39899;DHT22;25571;47.876;10.642;2022-09-01T12:33:51;19.10;94.60
39899;DHT22;25571;47.876;10.642;2022-09-01T12:38:51;19.00;95.10
39899;DHT22;25571;47.876;10.642;2022-09-01T12:41:33;19.10;95.30
39899;DHT22;25571;47.876;10.642;2022-09-01T12:44:28;19.20;94.20
39899;DHT22;25571;47.876;10.642;2022-09-01T12:46:55;19.10;93.50
39899;DHT22;25571;47.876;10.642;2022-09-01T12:49:47;19.30;94.00
39899;DHT22;25571;47.876;10.642;2022-09-01T12:52:31;19.40;93.00
39899;DHT22;25571;47.876;10.642;2022-09-01T12:57:34;19.10;93.20
39899;DHT22;25571;47.876;10.642;2022-09-01T13:02:50;19.30;92.90
39899;DHT22;25571;47.876;10.642;2022-09-01T13:05:26;19.40;92.70
39899;DHT22;25571;47.876;10.642;2022-09-01T13:07:58;19.40;91.30
39899;DHT22;25571;47.876;10.642;2022-09-01T13:10:26;19.40;91.70
39899;DHT22;25571;47.876;10.642;2022-09-01T13:12:55;19.20;91.80
39899;DHT22;25571;47.876;10.642;2022-09-01T13:15:22;19.20;93.10
39899;DHT22;25571;47.876;10.642;2022-09-01T13:17:50;19.20;91.30
39899;DHT22;25571;47.876;10.642;2022-09-01T13:20:16;19.00;91.00
39899;DHT22;25571;47.876;10.642;2022-09-01T13:22:41;19.10;92.00
39899;DHT22;25571;47.876;10.642;2022-09-01T13:25:13;19.00;90.70
39899;DHT22;25571;47.876;10.642;2022-09-01T13:27:40;18.90;91.70
39899;DHT22;25571;47.876;10.642;2022-09-01T13:30:20;19.00;92.00
39899;DHT22;25571;47.876;10.642;2022-09-01T13:32:47;18.60;91.40
39899;DHT22;25571;47.876;10.642;2022-09-01T13:35:15;18.70;92.10
39899;DHT22;25571;47.876;10.642;2022-09-01T13:37:41;18.80;93.20
39899;DHT22;25571;47.876;10.642;2022-09-01T13:40:07;19.00;91.20
39899;DHT22;25571;47.876;10.642;2022-09-01T13:42:38;19.00;91.90
39899;DHT22;25571;47.876;10.642;2022-09-01T13:45:04;19.00;90.70
39899;DHT22;25571;47.876;10.642;2022-09-01T13:47:33;19.00;92.10
39899;DHT22;25571;47.876;10.642;2022-09-01T13:49:59;18.90;92.50
39899;DHT22;25571;47.876;10.642;2022-09-01T13:52:25;19.00;92.40
39899;DHT22;25571;47.876;10.642;2022-09-01T13:54:50;19.10;92.90
39899;DHT22;25571;47.876;10.642;2022-09-01T13:57:16;19.20;90.90
39899;DHT22;25571;47.876;10.642;2022-09-01T13:59:42;19.10;91.70
39899;DHT22;25571;47.876;10.642;2022-09-01T14:02:08;19.10;92.50
39899;DHT22;25571;47.876;10.642;2022-09-01T14:04:35;19.20;91.80
39899;DHT22;25571;47.876;10.642;2022-09-01T14:07:00;19.10;91.40
39899;DHT22;25571;47.876;10.642;2022-09-01T14:09:27;19.10;92.20
39899;DHT22;25571;47.876;10.642;2022-09-01T14:11:54;19.10;92.10
39899;DHT22;25571;47.876;10.642;2022-09-01T14:14:19;18.90;92.30
39899;DHT22;25571;47.876;10.642;2022-09-01T14:16:45;18.90;92.40
39899;DHT22;25571;47.876;10.642;2022-09-01T14:19:11;18.90;91.60
39899;DHT22;25571;47.876;10.642;2022-09-01T14:21:37;19.00;93.10
39899;DHT22;25571;47.876;10.642;2022-09-01T14:24:03;19.10;91.70
39899;DHT22;25571;47.876;10.642;2022-09-01T14:26:29;19.20;91.10
39899;DHT22;25571;47.876;10.642;2022-09-01T14:28:55;19.20;91.60
39899;DHT22;25571;47.876;10.642;2022-09-01T14:31:21;19.30;91.70
39899;DHT22;25571;47.876;10.642;2022-09-01T14:33:47;19.40;91.00
39899;DHT22;25571;47.876;10.642;2022-09-01T14:36:22;19.30;91.50
39899;DHT22;25571;47.876;10.642;2022-09-01T14:38:49;19.20;91.20
39899;DHT22;25571;47.876;10.642;2022-09-01T14:41:16;19.20;91.30
39899;DHT22;25571;47.876;10.642;2022-09-01T14:43:45;19.10;91.40
39899;DHT22;25571;47.876;10.642;2022-09-01T14:46:11;19.20;91.70
39899;DHT22;25571;47.876;10.642;2022-09-01T14:48:38;19.30;91.50
39899;DHT22;25571;47.876;10.642;2022-09-01T14:51:05;19.30;90.50
39899;DHT22;25571;47.876;10.642;2022-09-01T14:53:30;19.10;90.30
39899;DHT22;25571;47.876;10.642;2022-09-01T14:56:00;19.10;90.10
39899;DHT22;25571;47.876;10.642;2022-09-01T14:58:27;19.20;90.10
39899;DHT22;25571;47.876;10.642;2022-09-01T15:00:54;19.30;89.40
39899;DHT22;25571;47.876;10.642;2022-09-01T15:03:24;19.30;89.80
39899;DHT22;25571;47.876;10.642;2022-09-01T15:05:53;19.30;90.70
39899;DHT22;25571;47.876;10.642;2022-09-01T15:08:20;19.30;89.00
39899;DHT22;25571;47.876;10.642;2022-09-01T15:10:47;19.20;90.60
39899;DHT22;25571;47.876;10.642;2022-09-01T15:13:13;19.20;90.70
39899;DHT22;25571;47.876;10.642;2022-09-01T15:15:39;19.30;89.00
39899;DHT22;25571;47.876;10.642;2022-09-01T15:18:05;19.20;86.50
39899;DHT22;25571;47.876;10.642;2022-09-01T15:20:30;19.20;85.30
39899;DHT22;25571;47.876;10.642;2022-09-01T15:23:18;19.10;86.80
39899;DHT22;25571;47.876;10.642;2022-09-01T15:25:44;19.20;88.40
39899;DHT22;25571;47.876;10.642;2022-09-01T15:28:10;19.10;87.20
39899;DHT22;25571;47.876;10.642;2022-09-01T15:30:36;19.00;86.90
39899;DHT22;25571;47.876;10.642;2022-09-01T15:33:02;19.00;87.30
39899;DHT22;25571;47.876;10.642;2022-09-01T15:35:28;19.10;86.90
39899;DHT22;25571;47.876;10.642;2022-09-01T15:37:54;19.10;87.90
39899;DHT22;25571;47.876;10.642;2022-09-01T15:40:22;19.20;88.50
39899;DHT22;25571;47.876;10.642;2022-09-01T15:42:48;19.10;87.40
39899;DHT22;25571;47.876;10.642;2022-09-01T15:45:18;19.00;88.50
39899;DHT22;25571;47.876;10.642;2022-09-01T15:47:45;19.10;90.20
39899;DHT22;25571;47.876;10.642;2022-09-01T15:50:14;19.10;90.30
39899;DHT22;25571;47.876;10.642;2022-09-01T15:52:56;19.20;89.00
39899;DHT22;25571;47.876;10.642;2022-09-01T15:55:27;19.00;88.80
39899;DHT22;25571;47.876;10.642;2022-09-01T15:57:52;19.10;89.10
39899;DHT22;25571;47.876;10.642;2022-09-01T16:00:19;19.10;89.20
39899;DHT22;25571;47.876;10.642;2022-09-01T16:02:45;19.00;88.90
39899;DHT22;25571;47.876;10.642;2022-09-01T16:05:12;19.10;89.00
39899;DHT22;25571;47.876;10.642;2022-09-01T16:07:39;19.10;90.20
39899;DHT22;25571;47.876;10.642;2022-09-01T16:10:05;19.20;89.80
39899;DHT22;25571;47.876;10.642;2022-09-01T16:12:38;19.20;90.00
39899;DHT22;25571;47.876;10.642;2022-09-01T16:15:04;19.20;90.60
39899;DHT22;25571;47.876;10.642;2022-09-01T16:17:52;19.20;90.30
39899;DHT22;25571;47.876;10.642;2022-09-01T16:20:25;19.10;90.20
39899;DHT22;25571;47.876;10.642;2022-09-01T16:22:55;19.10;90.00
39899;DHT22;25571;47.876;10.642;2022-09-01T16:25:30;19.00;89.20
39899;DHT22;25571;47.876;10.642;2022-09-01T16:28:00;19.00;90.50
39899;DHT22;25571;47.876;10.642;2022-09-01T16:30:27;18.80;90.30
39899;DHT22;25571;47.876;10.642;2022-09-01T16:32:56;18.60;91.00
39899;DHT22;25571;47.876;10.642;2022-09-01T16:35:50;18.60;90.80
39899;DHT22;25571;47.876;10.642;2022-09-01T17:00:33;18.60;91.70
39899;DHT22;25571;47.876;10.642;2022-09-01T17:05:39;18.50;92.20
39899;DHT22;25571;47.876;10.642;2022-09-01T17:08:19;18.60;92.10
39899;DHT22;25571;47.876;10.642;2022-09-01T17:12:08;18.60;92.20
39899;DHT22;25571;47.876;10.642;2022-09-01T17:14:05;18.50;92.80
39899;DHT22;25571;47.876;10.642;2022-09-01T17:16:33;18.50;92.10
39899;DHT22;25571;47.876;10.642;2022-09-01T17:19:13;18.50;92.30
39899;DHT22;25571;47.876;10.642;2022-09-01T17:21:47;18.50;91.60
39899;DHT22;25571;47.876;10.642;2022-09-01T17:26:46;18.30;91.40
39899;DHT22;25571;47.876;10.642;2022-09-01T17:29:31;18.20;92.30
39899;DHT22;25571;47.876;10.642;2022-09-01T17:35:23;18.20;91.90
39899;DHT22;25571;47.876;10.642;2022-09-01T17:38:33;18.20;92.00
39899;DHT22;25571;47.876;10.642;2022-09-01T17:41:20;18.20;91.10
39899;DHT22;25571;47.876;10.642;2022-09-01T17:46:38;17.90;91.60
39899;DHT22;25571;47.876;10.642;2022-09-01T17:49:27;17.80;91.50
39899;DHT22;25571;47.876;10.642;2022-09-01T17:51:58;17.90;91.90
39899;DHT22;25571;47.876;10.642;2022-09-01T18:05:25;17.30;92.80
39899;DHT22;25571;47.876;10.642;2022-09-01T18:10:37;17.20;94.00
39899;DHT22;25571;47.876;10.642;2022-09-01T18:13:08;17.30;94.10
39899;DHT22;25571;47.876;10.642;2022-09-01T18:15:46;17.30;93.10
39899;DHT22;25571;47.876;10.642;2022-09-01T18:20:57;17.00;93.30
39899;DHT22;25571;47.876;10.642;2022-09-01T18:23:24;16.80;93.40
39899;DHT22;25571;47.876;10.642;2022-09-01T18:25:58;16.80;93.80
39899;DHT22;25571;47.876;10.642;2022-09-01T18:28:27;16.70;94.00
39899;DHT22;25571;47.876;10.642;2022-09-01T18:31:01;16.70;94.10
39899;DHT22;25571;47.876;10.642;2022-09-01T18:42:12;16.70;94.80
39899;DHT22;25571;47.876;10.642;2022-09-01T18:44:55;16.60;94.40
39899;DHT22;25571;47.876;10.642;2022-09-01T18:47:32;16.70;94.70
39899;DHT22;25571;47.876;10.642;2022-09-01T18:58:02;16.50;95.10
39899;DHT22;25571;47.876;10.642;2022-09-01T19:00:45;16.50;95.10
39899;DHT22;25571;47.876;10.642;2022-09-01T19:03:23;16.50;94.40
39899;DHT22;25571;47.876;10.642;2022-09-01T19:20:16;16.20;95.10
39899;DHT22;25571;47.876;10.642;2022-09-01T19:23:01;16.20;94.70
39899;DHT22;25571;47.876;10.642;2022-09-01T19:25:29;16.10;95.20
39899;DHT22;25571;47.876;10.642;2022-09-01T19:30:43;16.00;95.40
39899;DHT22;25571;47.876;10.642;2022-09-01T19:33:12;16.00;95.40
39899;DHT22;25571;47.876;10.642;2022-09-01T19:35:39;16.00;95.20
39899;DHT22;25571;47.876;10.642;2022-09-01T19:38:07;16.00;95.60
39899;DHT22;25571;47.876;10.642;2022-09-01T19:40:36;15.90;95.60
39899;DHT22;25571;47.876;10.642;2022-09-01T19:43:12;16.00;95.70
39899;DHT22;25571;47.876;10.642;2022-09-01T19:45:53;15.90;95.60
39899;DHT22;25571;47.876;10.642;2022-09-01T19:48:40;15.70;95.90
39899;DHT22;25571;47.876;10.642;2022-09-01T19:51:29;15.70;96.60
39899;DHT22;25571;47.876;10.642;2022-09-01T19:54:02;15.80;96.50
39899;DHT22;25571;47.876;10.642;2022-09-01T20:07:36;15.50;96.80
39899;DHT22;25571;47.876;10.642;2022-09-01T20:15:38;15.30;97.00
39899;DHT22;25571;47.876;10.642;2022-09-01T20:18:09;15.30;97.00
39899;DHT22;25571;47.876;10.642;2022-09-01T20:20:45;15.30;96.80
39899;DHT22;25571;47.876;10.642;2022-09-01T20:26:25;15.30;97.10
39899;DHT22;25571;47.876;10.642;2022-09-01T20:28:58;15.20;97.30
39899;DHT22;25571;47.876;10.642;2022-09-01T20:31:31;15.20;97.00
39899;DHT22;25571;47.876;10.642;2022-09-01T20:34:12;15.20;96.80
39899;DHT22;25571;47.876;10.642;2022-09-01T20:36:49;15.20;97.20
39899;DHT22;25571;47.876;10.642;2022-09-01T20:39:30;15.20;96.90
39899;DHT22;25571;47.876;10.642;2022-09-01T20:42:40;15.20;96.90
39899;DHT22;25571;47.876;10.642;2022-09-01T20:45:24;15.10;96.60
39899;DHT22;25571;47.876;10.642;2022-09-01T20:47:53;15.10;97.10
39899;DHT22;25571;47.876;10.642;2022-09-01T20:50:24;15.10;97.20
39899;DHT22;25571;47.876;10.642;2022-09-01T20:53:01;15.10;96.70
39899;DHT22;25571;47.876;10.642;2022-09-01T20:55:46;15.00;96.70
39899;DHT22;25571;47.876;10.642;2022-09-01T21:09:22;14.80;96.30
39899;DHT22;25571;47.876;10.642;2022-09-01T21:19:58;14.80;96.30
39899;DHT22;25571;47.876;10.642;2022-09-01T21:22:27;14.80;96.10
39899;DHT22;25571;47.876;10.642;2022-09-01T21:24:54;14.70;96.10
39899;DHT22;25571;47.876;10.642;2022-09-01T21:27:30;14.60;96.50
39899;DHT22;25571;47.876;10.642;2022-09-01T21:32:30;14.70;96.70
39899;DHT22;25571;47.876;10.642;2022-09-01T21:34:56;14.70;96.90
39899;DHT22;25571;47.876;10.642;2022-09-01T21:37:24;14.70;97.00
39899;DHT22;25571;47.876;10.642;2022-09-01T21:39:50;14.70;96.70
39899;DHT22;25571;47.876;10.642;2022-09-01T21:42:21;14.70;96.70
39899;DHT22;25571;47.876;10.642;2022-09-01T21:44:48;14.60;96.90
39899;DHT22;25571;47.876;10.642;2022-09-01T21:47:14;14.60;96.50
39899;DHT22;25571;47.876;10.642;2022-09-01T21:49:40;14.50;96.70
39899;DHT22;25571;47.876;10.642;2022-09-01T21:52:06;14.50;96.60
39899;DHT22;25571;47.876;10.642;2022-09-01T21:54:33;14.60;96.60
39899;DHT22;25571;47.876;10.642;2022-09-01T21:57:01;14.60;96.90
39899;DHT22;25571;47.876;10.642;2022-09-01T21:59:27;14.40;97.10
39899;DHT22;25571;47.876;10.642;2022-09-01T22:01:52;14.60;96.80
39899;DHT22;25571;47.876;10.642;2022-09-01T22:04:18;14.50;96.70
39899;DHT22;25571;47.876;10.642;2022-09-01T22:06:45;14.40;97.00
39899;DHT22;25571;47.876;10.642;2022-09-01T22:09:11;14.50;97.20
39899;DHT22;25571;47.876;10.642;2022-09-01T22:11:39;14.50;97.70
39899;DHT22;25571;47.876;10.642;2022-09-01T22:14:05;14.40;97.20
39899;DHT22;25571;47.876;10.642;2022-09-01T22:16:31;14.40;97.70
39899;DHT22;25571;47.876;10.642;2022-09-01T22:18:58;14.30;97.90
39899;DHT22;25571;47.876;10.642;2022-09-01T22:21:23;14.30;98.10
39899;DHT22;25571;47.876;10.642;2022-09-01T22:23:49;14.20;98.10
39899;DHT22;25571;47.876;10.642;2022-09-01T22:26:21;14.30;98.20
39899;DHT22;25571;47.876;10.642;2022-09-01T22:28:47;14.20;97.90
39899;DHT22;25571;47.876;10.642;2022-09-01T22:31:18;14.30;98.10
39899;DHT22;25571;47.876;10.642;2022-09-01T22:33:45;14.30;98.00
39899;DHT22;25571;47.876;10.642;2022-09-01T22:36:18;14.20;98.00
39899;DHT22;25571;47.876;10.642;2022-09-01T22:38:44;14.20;98.20
39899;DHT22;25571;47.876;10.642;2022-09-01T22:41:10;14.10;98.40
39899;DHT22;25571;47.876;10.642;2022-09-01T22:43:36;14.20;98.20
39899;DHT22;25571;47.876;10.642;2022-09-01T22:46:04;14.10;98.30
39899;DHT22;25571;47.876;10.642;2022-09-01T22:48:30;14.10;98.40
39899;DHT22;25571;47.876;10.642;2022-09-01T22:50:55;13.90;98.70
39899;DHT22;25571;47.876;10.642;2022-09-01T22:53:22;13.90;98.60
39899;DHT22;25571;47.876;10.642;2022-09-01T22:55:49;13.90;98.90